<?xml version="1.0" encoding="UTF-8" standalone="no" ?>
<gpx xmlns="http://www.topografix.com/GPX/1/1" xmlns:xsi="http://www.w3.org/2001/XMLSchema-instance" xsi:schemaLocation="http://www.topografix.com/GPX/1/1 http://www.topografix.com/GPX/1/1/gpx.xsd" version="1.1" creator="VisuGPX - https://www.visugpx.com">
  <metadata>
    <name>signes </name>
    <desc><![CDATA[Le Beausset Signes Méounes Sollies pont ]]></desc>
  </metadata>
  <trk>
    <name><![CDATA[Tracé actuel: 27 JUIN 2015 07:16]]></name>
    <trkseg>
      <trkpt lat="43.13863" lon="5.91501">
        <ele>70.31</ele>
        <time>2015-06-27T05:16:26Z</time>
      </trkpt>
      <trkpt lat="43.13868" lon="5.91496">
        <ele>70.31</ele>
        <time>2015-06-27T05:16:55Z</time>
      </trkpt>
      <trkpt lat="43.13882" lon="5.91469">
        <ele>68.39</ele>
        <time>2015-06-27T05:17:19Z</time>
      </trkpt>
      <trkpt lat="43.13879" lon="5.91471">
        <ele>67.91</ele>
        <time>2015-06-27T05:17:33Z</time>
      </trkpt>
      <trkpt lat="43.13879" lon="5.91469">
        <ele>67.91</ele>
        <time>2015-06-27T05:17:50Z</time>
      </trkpt>
      <trkpt lat="43.13881" lon="5.91471">
        <ele>67.91</ele>
        <time>2015-06-27T05:18:17Z</time>
      </trkpt>
      <trkpt lat="43.13878" lon="5.91474">
        <ele>67.43</ele>
        <time>2015-06-27T05:18:45Z</time>
      </trkpt>
      <trkpt lat="43.13875" lon="5.91472">
        <ele>65.99</ele>
        <time>2015-06-27T05:19:08Z</time>
      </trkpt>
      <trkpt lat="43.13878" lon="5.91466">
        <ele>64.07</ele>
        <time>2015-06-27T05:19:27Z</time>
      </trkpt>
      <trkpt lat="43.13877" lon="5.91466">
        <ele>62.62</ele>
        <time>2015-06-27T05:19:47Z</time>
      </trkpt>
      <trkpt lat="43.13881" lon="5.91462">
        <ele>65.03</ele>
        <time>2015-06-27T05:20:01Z</time>
      </trkpt>
      <trkpt lat="43.13884" lon="5.91467">
        <ele>64.55</ele>
        <time>2015-06-27T05:20:19Z</time>
      </trkpt>
      <trkpt lat="43.13883" lon="5.91466">
        <ele>64.55</ele>
        <time>2015-06-27T05:20:26Z</time>
      </trkpt>
      <trkpt lat="43.13888" lon="5.9147">
        <ele>65.99</ele>
        <time>2015-06-27T05:20:38Z</time>
      </trkpt>
      <trkpt lat="43.13887" lon="5.91476">
        <ele>67.43</ele>
        <time>2015-06-27T05:20:50Z</time>
      </trkpt>
      <trkpt lat="43.13879" lon="5.91476">
        <ele>67.91</ele>
        <time>2015-06-27T05:21:06Z</time>
      </trkpt>
      <trkpt lat="43.13877" lon="5.91475">
        <ele>68.39</ele>
        <time>2015-06-27T05:21:21Z</time>
      </trkpt>
      <trkpt lat="43.13877" lon="5.91476">
        <ele>68.87</ele>
        <time>2015-06-27T05:21:34Z</time>
      </trkpt>
      <trkpt lat="43.13878" lon="5.91476">
        <ele>69.35</ele>
        <time>2015-06-27T05:21:48Z</time>
      </trkpt>
      <trkpt lat="43.13876" lon="5.91479">
        <ele>65.03</ele>
        <time>2015-06-27T05:22:03Z</time>
      </trkpt>
      <trkpt lat="43.13875" lon="5.91478">
        <ele>65.51</ele>
        <time>2015-06-27T05:22:17Z</time>
      </trkpt>
      <trkpt lat="43.13873" lon="5.91477">
        <ele>65.03</ele>
        <time>2015-06-27T05:22:50Z</time>
      </trkpt>
    </trkseg>
  </trk>
</gpx>